sensor_id;sensor_type;location;lat;lon;timestamp;P1;durP1;ratioP1;P2;durP2;ratioP2
13568;SDS011;6856;51.460;7.158;2023-09-19T00:01:25;3.63;;;1.40;;
13568;SDS011;6856;51.460;7.158;2023-09-19T00:04:00;5.00;;;1.80;;
13568;SDS011;6856;51.460;7.158;2023-09-19T00:06:37;3.93;;;1.43;;
13568;SDS011;6856;51.460;7.158;2023-09-19T00:09:11;2.90;;;1.37;;
13568;SDS011;6856;51.460;7.158;2023-09-19T00:11:45;5.47;;;1.97;;
13568;SDS011;6856;51.460;7.158;2023-09-19T00:14:24;3.30;;;1.40;;
13568;SDS011;6856;51.460;7.158;2023-09-19T00:16:58;4.67;;;1.57;;
13568;SDS011;6856;51.460;7.158;2023-09-19T00:19:32;3.90;;;1.33;;
13568;SDS011;6856;51.460;7.158;2023-09-19T00:22:06;3.60;;;1.20;;
13568;SDS011;6856;51.460;7.158;2023-09-19T00:24:40;2.33;;;1.30;;
13568;SDS011;6856;51.460;7.158;2023-09-19T00:31:51;3.37;;;1.50;;
13568;SDS011;6856;51.460;7.158;2023-09-19T00:34:25;3.43;;;1.23;;
13568;SDS011;6856;51.460;7.158;2023-09-19T00:36:59;5.97;;;1.80;;
13568;SDS011;6856;51.460;7.158;2023-09-19T00:39:33;3.60;;;1.33;;
13568;SDS011;6856;51.460;7.158;2023-09-19T00:42:06;5.93;;;1.53;;
13568;SDS011;6856;51.460;7.158;2023-09-19T00:44:40;4.33;;;1.67;;
13568;SDS011;6856;51.460;7.158;2023-09-19T00:47:15;4.30;;;2.00;;
13568;SDS011;6856;51.460;7.158;2023-09-19T00:49:49;4.00;;;1.60;;
13568;SDS011;6856;51.460;7.158;2023-09-19T00:52:24;4.23;;;1.47;;
13568;SDS011;6856;51.460;7.158;2023-09-19T00:54:59;4.27;;;1.60;;
13568;SDS011;6856;51.460;7.158;2023-09-19T00:57:34;5.27;;;1.53;;
13568;SDS011;6856;51.460;7.158;2023-09-19T01:00:10;2.97;;;1.23;;
13568;SDS011;6856;51.460;7.158;2023-09-19T01:02:49;2.97;;;1.47;;
13568;SDS011;6856;51.460;7.158;2023-09-19T01:05:22;5.17;;;1.90;;
13568;SDS011;6856;51.460;7.158;2023-09-19T01:07:57;3.57;;;1.57;;
13568;SDS011;6856;51.460;7.158;2023-09-19T01:10:31;5.67;;;2.10;;
13568;SDS011;6856;51.460;7.158;2023-09-19T01:17:43;5.37;;;1.70;;
13568;SDS011;6856;51.460;7.158;2023-09-19T01:20:32;5.13;;;1.70;;
13568;SDS011;6856;51.460;7.158;2023-09-19T01:23:21;4.33;;;1.43;;
13568;SDS011;6856;51.460;7.158;2023-09-19T01:26:17;5.03;;;1.83;;
13568;SDS011;6856;51.460;7.158;2023-09-19T01:29:14;4.53;;;1.60;;
13568;SDS011;6856;51.460;7.158;2023-09-19T01:32:08;4.80;;;1.60;;
13568;SDS011;6856;51.460;7.158;2023-09-19T01:34:45;5.83;;;1.80;;
13568;SDS011;6856;51.460;7.158;2023-09-19T01:37:21;3.33;;;1.40;;
13568;SDS011;6856;51.460;7.158;2023-09-19T01:39:58;5.73;;;1.83;;
13568;SDS011;6856;51.460;7.158;2023-09-19T01:42:37;2.97;;;1.60;;
13568;SDS011;6856;51.460;7.158;2023-09-19T01:45:19;4.07;;;1.63;;
13568;SDS011;6856;51.460;7.158;2023-09-19T01:48:05;4.93;;;2.00;;
13568;SDS011;6856;51.460;7.158;2023-09-19T01:50:55;4.00;;;1.53;;
13568;SDS011;6856;51.460;7.158;2023-09-19T01:53:50;3.10;;;1.30;;
13568;SDS011;6856;51.460;7.158;2023-09-19T01:56:30;4.20;;;1.60;;
13568;SDS011;6856;51.460;7.158;2023-09-19T01:59:11;5.63;;;1.70;;
13568;SDS011;6856;51.460;7.158;2023-09-19T02:01:51;4.37;;;1.57;;
13568;SDS011;6856;51.460;7.158;2023-09-19T02:04:29;4.03;;;1.63;;
13568;SDS011;6856;51.460;7.158;2023-09-19T02:07:06;6.10;;;1.80;;
13568;SDS011;6856;51.460;7.158;2023-09-19T02:09:40;4.53;;;1.83;;
13568;SDS011;6856;51.460;7.158;2023-09-19T02:12:14;2.83;;;1.40;;
13568;SDS011;6856;51.460;7.158;2023-09-19T02:14:48;4.80;;;1.63;;
13568;SDS011;6856;51.460;7.158;2023-09-19T02:17:21;4.43;;;2.00;;
13568;SDS011;6856;51.460;7.158;2023-09-19T02:19:59;4.10;;;1.60;;
13568;SDS011;6856;51.460;7.158;2023-09-19T02:22:33;8.47;;;1.80;;
13568;SDS011;6856;51.460;7.158;2023-09-19T02:25:08;7.03;;;1.73;;
13568;SDS011;6856;51.460;7.158;2023-09-19T02:27:42;5.53;;;1.57;;
13568;SDS011;6856;51.460;7.158;2023-09-19T02:30:16;4.87;;;1.83;;
13568;SDS011;6856;51.460;7.158;2023-09-19T02:32:51;5.83;;;1.90;;
13568;SDS011;6856;51.460;7.158;2023-09-19T02:35:27;3.73;;;1.50;;
13568;SDS011;6856;51.460;7.158;2023-09-19T02:38:04;4.10;;;1.80;;
13568;SDS011;6856;51.460;7.158;2023-09-19T02:40:43;3.90;;;1.80;;
13568;SDS011;6856;51.460;7.158;2023-09-19T02:43:17;3.00;;;1.33;;
13568;SDS011;6856;51.460;7.158;2023-09-19T02:45:51;3.57;;;1.50;;
13568;SDS011;6856;51.460;7.158;2023-09-19T02:48:26;4.47;;;1.77;;
13568;SDS011;6856;51.460;7.158;2023-09-19T02:55:37;3.37;;;1.60;;
13568;SDS011;6856;51.460;7.158;2023-09-19T02:58:12;6.03;;;1.87;;
13568;SDS011;6856;51.460;7.158;2023-09-19T03:00:46;4.70;;;1.80;;
13568;SDS011;6856;51.460;7.158;2023-09-19T03:03:22;6.13;;;1.57;;
13568;SDS011;6856;51.460;7.158;2023-09-19T03:05:57;4.43;;;1.53;;
13568;SDS011;6856;51.460;7.158;2023-09-19T03:08:31;3.93;;;1.77;;
13568;SDS011;6856;51.460;7.158;2023-09-19T03:11:09;3.33;;;1.60;;
13568;SDS011;6856;51.460;7.158;2023-09-19T03:13:46;5.77;;;1.90;;
13568;SDS011;6856;51.460;7.158;2023-09-19T03:16:24;5.27;;;1.83;;
13568;SDS011;6856;51.460;7.158;2023-09-19T03:18:58;4.37;;;2.23;;
13568;SDS011;6856;51.460;7.158;2023-09-19T03:21:32;3.97;;;1.87;;
13568;SDS011;6856;51.460;7.158;2023-09-19T03:24:06;3.63;;;1.50;;
13568;SDS011;6856;51.460;7.158;2023-09-19T03:26:42;5.17;;;1.57;;
13568;SDS011;6856;51.460;7.158;2023-09-19T03:29:16;4.83;;;1.60;;
13568;SDS011;6856;51.460;7.158;2023-09-19T03:31:51;4.17;;;1.57;;
13568;SDS011;6856;51.460;7.158;2023-09-19T03:34:26;3.10;;;1.60;;
13568;SDS011;6856;51.460;7.158;2023-09-19T03:37:03;6.70;;;2.07;;
13568;SDS011;6856;51.460;7.158;2023-09-19T03:39:38;3.53;;;1.57;;
13568;SDS011;6856;51.460;7.158;2023-09-19T03:42:13;3.47;;;1.57;;
13568;SDS011;6856;51.460;7.158;2023-09-19T03:44:47;3.00;;;1.20;;
13568;SDS011;6856;51.460;7.158;2023-09-19T03:51:56;2.53;;;1.30;;
13568;SDS011;6856;51.460;7.158;2023-09-19T03:54:29;4.13;;;1.40;;
13568;SDS011;6856;51.460;7.158;2023-09-19T03:57:04;5.17;;;1.80;;
13568;SDS011;6856;51.460;7.158;2023-09-19T03:59:39;4.37;;;1.70;;
13568;SDS011;6856;51.460;7.158;2023-09-19T04:06:49;4.80;;;1.53;;
13568;SDS011;6856;51.460;7.158;2023-09-19T04:09:22;3.77;;;1.50;;
13568;SDS011;6856;51.460;7.158;2023-09-19T04:11:57;4.80;;;1.73;;
13568;SDS011;6856;51.460;7.158;2023-09-19T04:14:31;2.60;;;1.40;;
13568;SDS011;6856;51.460;7.158;2023-09-19T04:17:06;3.60;;;1.50;;
13568;SDS011;6856;51.460;7.158;2023-09-19T04:19:42;4.70;;;1.90;;
13568;SDS011;6856;51.460;7.158;2023-09-19T04:22:17;2.60;;;1.33;;
13568;SDS011;6856;51.460;7.158;2023-09-19T04:24:51;3.00;;;1.30;;
13568;SDS011;6856;51.460;7.158;2023-09-19T04:27:24;3.10;;;2.00;;
13568;SDS011;6856;51.460;7.158;2023-09-19T04:29:58;5.07;;;1.80;;
13568;SDS011;6856;51.460;7.158;2023-09-19T04:32:42;4.53;;;1.80;;
13568;SDS011;6856;51.460;7.158;2023-09-19T04:35:16;4.73;;;2.00;;
13568;SDS011;6856;51.460;7.158;2023-09-19T04:42:28;4.00;;;1.60;;
13568;SDS011;6856;51.460;7.158;2023-09-19T04:45:02;4.07;;;1.80;;
13568;SDS011;6856;51.460;7.158;2023-09-19T04:47:37;4.00;;;1.53;;
13568;SDS011;6856;51.460;7.158;2023-09-19T04:50:12;3.87;;;1.60;;
13568;SDS011;6856;51.460;7.158;2023-09-19T04:52:48;3.17;;;1.67;;
13568;SDS011;6856;51.460;7.158;2023-09-19T04:55:24;4.07;;;1.60;;
13568;SDS011;6856;51.460;7.158;2023-09-19T05:02:33;3.47;;;1.50;;
13568;SDS011;6856;51.460;7.158;2023-09-19T05:05:07;3.43;;;1.60;;
13568;SDS011;6856;51.460;7.158;2023-09-19T05:07:45;3.83;;;1.57;;
13568;SDS011;6856;51.460;7.158;2023-09-19T05:10:19;4.73;;;1.60;;
13568;SDS011;6856;51.460;7.158;2023-09-19T05:12:53;7.30;;;1.43;;
13568;SDS011;6856;51.460;7.158;2023-09-19T05:15:29;3.37;;;1.60;;
13568;SDS011;6856;51.460;7.158;2023-09-19T05:18:07;4.50;;;1.67;;
13568;SDS011;6856;51.460;7.158;2023-09-19T05:20:42;2.97;;;1.40;;
13568;SDS011;6856;51.460;7.158;2023-09-19T05:23:17;5.13;;;2.10;;
13568;SDS011;6856;51.460;7.158;2023-09-19T05:25:52;5.37;;;1.67;;
13568;SDS011;6856;51.460;7.158;2023-09-19T05:28:28;2.90;;;1.37;;
13568;SDS011;6856;51.460;7.158;2023-09-19T05:31:04;3.70;;;1.50;;
13568;SDS011;6856;51.460;7.158;2023-09-19T05:33:37;4.23;;;1.70;;
13568;SDS011;6856;51.460;7.158;2023-09-19T05:36:14;8.03;;;1.70;;
13568;SDS011;6856;51.460;7.158;2023-09-19T05:38:50;4.43;;;1.93;;
13568;SDS011;6856;51.460;7.158;2023-09-19T05:41:24;5.00;;;1.73;;
13568;SDS011;6856;51.460;7.158;2023-09-19T05:48:34;3.33;;;1.50;;
13568;SDS011;6856;51.460;7.158;2023-09-19T05:51:08;4.53;;;1.90;;
13568;SDS011;6856;51.460;7.158;2023-09-19T05:53:42;5.90;;;2.00;;
13568;SDS011;6856;51.460;7.158;2023-09-19T05:56:17;4.10;;;1.93;;
13568;SDS011;6856;51.460;7.158;2023-09-19T05:58:52;4.57;;;1.77;;
13568;SDS011;6856;51.460;7.158;2023-09-19T06:01:26;4.60;;;1.73;;
13568;SDS011;6856;51.460;7.158;2023-09-19T06:04:00;7.17;;;2.07;;
13568;SDS011;6856;51.460;7.158;2023-09-19T06:06:34;5.43;;;1.80;;
13568;SDS011;6856;51.460;7.158;2023-09-19T06:09:10;6.07;;;2.10;;
13568;SDS011;6856;51.460;7.158;2023-09-19T06:16:21;6.93;;;1.93;;
13568;SDS011;6856;51.460;7.158;2023-09-19T06:18:55;3.97;;;1.63;;
13568;SDS011;6856;51.460;7.158;2023-09-19T06:21:30;5.80;;;1.93;;
13568;SDS011;6856;51.460;7.158;2023-09-19T06:24:04;5.60;;;1.73;;
13568;SDS011;6856;51.460;7.158;2023-09-19T06:26:38;5.43;;;1.80;;
13568;SDS011;6856;51.460;7.158;2023-09-19T06:29:12;3.87;;;2.03;;
13568;SDS011;6856;51.460;7.158;2023-09-19T06:31:51;7.17;;;2.57;;
13568;SDS011;6856;51.460;7.158;2023-09-19T06:34:25;4.33;;;1.70;;
13568;SDS011;6856;51.460;7.158;2023-09-19T06:36:59;9.63;;;1.97;;
13568;SDS011;6856;51.460;7.158;2023-09-19T06:39:34;4.47;;;1.67;;
13568;SDS011;6856;51.460;7.158;2023-09-19T06:42:08;4.70;;;1.93;;
13568;SDS011;6856;51.460;7.158;2023-09-19T06:44:42;4.93;;;1.70;;
13568;SDS011;6856;51.460;7.158;2023-09-19T06:47:18;4.97;;;2.03;;
13568;SDS011;6856;51.460;7.158;2023-09-19T06:49:52;7.10;;;2.27;;
13568;SDS011;6856;51.460;7.158;2023-09-19T06:52:26;5.07;;;2.00;;
13568;SDS011;6856;51.460;7.158;2023-09-19T06:59:35;4.13;;;1.37;;
13568;SDS011;6856;51.460;7.158;2023-09-19T07:02:10;3.90;;;1.57;;
13568;SDS011;6856;51.460;7.158;2023-09-19T07:09:22;3.23;;;1.77;;
13568;SDS011;6856;51.460;7.158;2023-09-19T07:11:59;3.53;;;1.67;;
13568;SDS011;6856;51.460;7.158;2023-09-19T07:14:36;4.40;;;1.90;;
13568;SDS011;6856;51.460;7.158;2023-09-19T07:17:12;6.10;;;1.67;;
13568;SDS011;6856;51.460;7.158;2023-09-19T07:19:50;5.07;;;1.90;;
13568;SDS011;6856;51.460;7.158;2023-09-19T07:22:25;2.73;;;1.40;;
13568;SDS011;6856;51.460;7.158;2023-09-19T07:25:03;3.63;;;1.60;;
13568;SDS011;6856;51.460;7.158;2023-09-19T07:27:40;7.73;;;1.73;;
13568;SDS011;6856;51.460;7.158;2023-09-19T07:30:14;7.10;;;2.10;;
13568;SDS011;6856;51.460;7.158;2023-09-19T07:32:51;5.47;;;2.03;;
13568;SDS011;6856;51.460;7.158;2023-09-19T07:35:26;5.17;;;2.20;;
13568;SDS011;6856;51.460;7.158;2023-09-19T07:38:01;5.30;;;1.83;;
13568;SDS011;6856;51.460;7.158;2023-09-19T07:40:38;4.80;;;2.03;;
13568;SDS011;6856;51.460;7.158;2023-09-19T07:43:12;4.73;;;1.93;;
13568;SDS011;6856;51.460;7.158;2023-09-19T07:45:49;8.47;;;2.77;;
13568;SDS011;6856;51.460;7.158;2023-09-19T07:48:23;4.07;;;1.80;;
13568;SDS011;6856;51.460;7.158;2023-09-19T07:51:01;3.13;;;1.67;;
13568;SDS011;6856;51.460;7.158;2023-09-19T07:53:38;5.63;;;2.27;;
13568;SDS011;6856;51.460;7.158;2023-09-19T07:56:15;4.83;;;1.83;;
13568;SDS011;6856;51.460;7.158;2023-09-19T07:58:51;5.23;;;1.87;;
13568;SDS011;6856;51.460;7.158;2023-09-19T08:01:26;5.33;;;1.90;;
13568;SDS011;6856;51.460;7.158;2023-09-19T08:04:01;4.40;;;1.90;;
13568;SDS011;6856;51.460;7.158;2023-09-19T08:06:35;4.53;;;1.90;;
13568;SDS011;6856;51.460;7.158;2023-09-19T08:09:11;4.87;;;1.90;;
13568;SDS011;6856;51.460;7.158;2023-09-19T08:11:57;4.87;;;2.00;;
13568;SDS011;6856;51.460;7.158;2023-09-19T08:14:36;5.00;;;1.60;;
13568;SDS011;6856;51.460;7.158;2023-09-19T08:17:13;9.70;;;2.23;;
13568;SDS011;6856;51.460;7.158;2023-09-19T08:19:47;5.87;;;2.07;;
13568;SDS011;6856;51.460;7.158;2023-09-19T08:22:24;4.40;;;1.80;;
13568;SDS011;6856;51.460;7.158;2023-09-19T08:24:59;5.07;;;1.90;;
13568;SDS011;6856;51.460;7.158;2023-09-19T08:27:40;5.43;;;1.80;;
13568;SDS011;6856;51.460;7.158;2023-09-19T08:30:15;5.30;;;1.87;;
13568;SDS011;6856;51.460;7.158;2023-09-19T08:32:56;5.40;;;1.93;;
13568;SDS011;6856;51.460;7.158;2023-09-19T08:35:31;4.20;;;1.67;;
13568;SDS011;6856;51.460;7.158;2023-09-19T08:38:05;5.50;;;1.77;;
13568;SDS011;6856;51.460;7.158;2023-09-19T08:40:39;4.93;;;1.60;;
13568;SDS011;6856;51.460;7.158;2023-09-19T08:43:18;6.07;;;1.83;;
13568;SDS011;6856;51.460;7.158;2023-09-19T08:45:57;3.20;;;1.57;;
13568;SDS011;6856;51.460;7.158;2023-09-19T08:48:46;4.70;;;1.93;;
13568;SDS011;6856;51.460;7.158;2023-09-19T08:51:33;5.13;;;2.10;;
13568;SDS011;6856;51.460;7.158;2023-09-19T08:54:20;2.80;;;1.50;;
13568;SDS011;6856;51.460;7.158;2023-09-19T08:56:58;5.33;;;1.93;;
13568;SDS011;6856;51.460;7.158;2023-09-19T08:59:42;4.27;;;1.67;;
13568;SDS011;6856;51.460;7.158;2023-09-19T09:02:19;5.03;;;1.50;;
13568;SDS011;6856;51.460;7.158;2023-09-19T09:04:57;3.07;;;1.53;;
13568;SDS011;6856;51.460;7.158;2023-09-19T09:07:33;5.37;;;1.77;;
13568;SDS011;6856;51.460;7.158;2023-09-19T09:10:10;8.70;;;2.03;;
13568;SDS011;6856;51.460;7.158;2023-09-19T09:12:46;2.77;;;1.47;;
13568;SDS011;6856;51.460;7.158;2023-09-19T09:15:24;3.87;;;1.70;;
13568;SDS011;6856;51.460;7.158;2023-09-19T09:18:01;3.93;;;1.30;;
13568;SDS011;6856;51.460;7.158;2023-09-19T09:20:39;4.90;;;1.90;;
13568;SDS011;6856;51.460;7.158;2023-09-19T09:23:13;3.93;;;1.70;;
13568;SDS011;6856;51.460;7.158;2023-09-19T09:25:48;4.27;;;1.70;;
13568;SDS011;6856;51.460;7.158;2023-09-19T09:28:34;3.53;;;1.57;;
13568;SDS011;6856;51.460;7.158;2023-09-19T09:31:16;3.80;;;1.63;;
13568;SDS011;6856;51.460;7.158;2023-09-19T09:33:57;5.93;;;1.30;;
13568;SDS011;6856;51.460;7.158;2023-09-19T09:36:34;3.80;;;1.60;;
13568;SDS011;6856;51.460;7.158;2023-09-19T09:39:10;4.57;;;1.97;;
13568;SDS011;6856;51.460;7.158;2023-09-19T09:41:56;4.50;;;1.87;;
13568;SDS011;6856;51.460;7.158;2023-09-19T09:44:31;3.20;;;1.87;;
13568;SDS011;6856;51.460;7.158;2023-09-19T09:47:08;5.53;;;1.97;;
13568;SDS011;6856;51.460;7.158;2023-09-19T09:49:59;3.63;;;1.53;;
13568;SDS011;6856;51.460;7.158;2023-09-19T09:52:49;4.93;;;1.90;;
13568;SDS011;6856;51.460;7.158;2023-09-19T09:55:23;4.83;;;1.80;;
13568;SDS011;6856;51.460;7.158;2023-09-19T10:00:53;6.83;;;1.93;;
13568;SDS011;6856;51.460;7.158;2023-09-19T10:03:38;7.10;;;2.10;;
13568;SDS011;6856;51.460;7.158;2023-09-19T10:06:17;3.97;;;1.90;;
13568;SDS011;6856;51.460;7.158;2023-09-19T10:09:02;5.13;;;1.90;;
13568;SDS011;6856;51.460;7.158;2023-09-19T10:11:44;5.17;;;1.93;;
13568;SDS011;6856;51.460;7.158;2023-09-19T10:14:26;2.83;;;1.70;;
13568;SDS011;6856;51.460;7.158;2023-09-19T10:17:08;3.80;;;1.60;;
13568;SDS011;6856;51.460;7.158;2023-09-19T10:19:45;4.70;;;1.80;;
13568;SDS011;6856;51.460;7.158;2023-09-19T10:22:29;4.30;;;1.73;;
13568;SDS011;6856;51.460;7.158;2023-09-19T10:25:09;4.30;;;1.80;;
13568;SDS011;6856;51.460;7.158;2023-09-19T10:27:43;8.87;;;1.90;;
13568;SDS011;6856;51.460;7.158;2023-09-19T10:30:22;4.53;;;1.77;;
13568;SDS011;6856;51.460;7.158;2023-09-19T10:33:01;3.97;;;1.63;;
13568;SDS011;6856;51.460;7.158;2023-09-19T10:35:40;4.30;;;1.50;;
13568;SDS011;6856;51.460;7.158;2023-09-19T10:38:18;3.90;;;1.77;;
13568;SDS011;6856;51.460;7.158;2023-09-19T10:40:57;4.90;;;2.00;;
13568;SDS011;6856;51.460;7.158;2023-09-19T10:43:33;4.03;;;1.87;;
13568;SDS011;6856;51.460;7.158;2023-09-19T10:46:11;3.47;;;1.50;;
13568;SDS011;6856;51.460;7.158;2023-09-19T10:48:46;4.47;;;1.90;;
13568;SDS011;6856;51.460;7.158;2023-09-19T10:51:24;5.95;;;1.60;;
13568;SDS011;6856;51.460;7.158;2023-09-19T10:54:05;3.95;;;1.70;;
13568;SDS011;6856;51.460;7.158;2023-09-19T10:56:47;5.00;;;1.83;;
13568;SDS011;6856;51.460;7.158;2023-09-19T10:59:24;4.90;;;1.90;;
13568;SDS011;6856;51.460;7.158;2023-09-19T11:02:15;3.17;;;1.47;;
13568;SDS011;6856;51.460;7.158;2023-09-19T11:04:50;5.40;;;1.70;;
13568;SDS011;6856;51.460;7.158;2023-09-19T11:07:27;7.70;;;2.10;;
13568;SDS011;6856;51.460;7.158;2023-09-19T11:10:03;3.30;;;1.80;;
13568;SDS011;6856;51.460;7.158;2023-09-19T11:12:48;4.77;;;1.63;;
13568;SDS011;6856;51.460;7.158;2023-09-19T11:18:53;5.53;;;1.67;;
13568;SDS011;6856;51.460;7.158;2023-09-19T11:27:22;4.60;;;1.83;;
13568;SDS011;6856;51.460;7.158;2023-09-19T11:33:16;4.07;;;1.42;;
13568;SDS011;6856;51.460;7.158;2023-09-19T11:35:58;2.83;;;1.47;;
13568;SDS011;6856;51.460;7.158;2023-09-19T11:41:55;3.30;;;1.25;;
13568;SDS011;6856;51.460;7.158;2023-09-19T11:44:33;3.80;;;1.35;;
13568;SDS011;6856;51.460;7.158;2023-09-19T11:47:11;3.78;;;1.20;;
13568;SDS011;6856;51.460;7.158;2023-09-19T11:49:47;5.72;;;2.03;;
13568;SDS011;6856;51.460;7.158;2023-09-19T11:52:22;4.50;;;2.00;;
13568;SDS011;6856;51.460;7.158;2023-09-19T11:54:58;4.50;;;1.50;;
13568;SDS011;6856;51.460;7.158;2023-09-19T11:57:36;3.30;;;1.33;;
13568;SDS011;6856;51.460;7.158;2023-09-19T12:00:16;3.33;;;1.50;;
13568;SDS011;6856;51.460;7.158;2023-09-19T12:02:53;3.47;;;1.50;;
13568;SDS011;6856;51.460;7.158;2023-09-19T12:05:38;4.63;;;1.83;;
13568;SDS011;6856;51.460;7.158;2023-09-19T12:08:14;2.60;;;1.50;;
13568;SDS011;6856;51.460;7.158;2023-09-19T12:10:53;4.05;;;1.77;;
13568;SDS011;6856;51.460;7.158;2023-09-19T12:13:29;2.28;;;1.40;;
13568;SDS011;6856;51.460;7.158;2023-09-19T12:16:04;6.57;;;1.73;;
13568;SDS011;6856;51.460;7.158;2023-09-19T12:18:53;3.78;;;1.40;;
13568;SDS011;6856;51.460;7.158;2023-09-19T12:21:29;4.50;;;1.90;;
13568;SDS011;6856;51.460;7.158;2023-09-19T12:24:07;4.47;;;1.75;;
13568;SDS011;6856;51.460;7.158;2023-09-19T12:26:48;3.45;;;1.30;;
13568;SDS011;6856;51.460;7.158;2023-09-19T12:29:26;5.85;;;1.65;;
13568;SDS011;6856;51.460;7.158;2023-09-19T12:32:02;3.38;;;1.80;;
13568;SDS011;6856;51.460;7.158;2023-09-19T12:34:38;3.60;;;1.63;;
13568;SDS011;6856;51.460;7.158;2023-09-19T12:37:15;3.88;;;1.70;;
13568;SDS011;6856;51.460;7.158;2023-09-19T12:39:52;4.95;;;1.73;;
13568;SDS011;6856;51.460;7.158;2023-09-19T12:42:46;4.72;;;1.73;;
13568;SDS011;6856;51.460;7.158;2023-09-19T12:45:23;3.85;;;1.67;;
13568;SDS011;6856;51.460;7.158;2023-09-19T12:48:18;3.63;;;1.50;;
13568;SDS011;6856;51.460;7.158;2023-09-19T12:51:02;3.60;;;1.17;;
13568;SDS011;6856;51.460;7.158;2023-09-19T12:53:40;4.07;;;1.20;;
13568;SDS011;6856;51.460;7.158;2023-09-19T12:56:17;3.30;;;1.63;;
13568;SDS011;6856;51.460;7.158;2023-09-19T12:58:52;4.72;;;1.38;;
13568;SDS011;6856;51.460;7.158;2023-09-19T13:01:31;3.72;;;1.30;;
13568;SDS011;6856;51.460;7.158;2023-09-19T13:04:12;4.15;;;1.25;;
13568;SDS011;6856;51.460;7.158;2023-09-19T13:06:50;3.47;;;1.27;;
13568;SDS011;6856;51.460;7.158;2023-09-19T13:09:26;2.72;;;1.20;;
13568;SDS011;6856;51.460;7.158;2023-09-19T13:15:19;2.75;;;1.17;;
13568;SDS011;6856;51.460;7.158;2023-09-19T13:17:57;2.42;;;1.20;;
13568;SDS011;6856;51.460;7.158;2023-09-19T13:20:36;3.78;;;1.20;;
13568;SDS011;6856;51.460;7.158;2023-09-19T13:23:25;3.15;;;1.42;;
13568;SDS011;6856;51.460;7.158;2023-09-19T13:26:00;3.80;;;1.55;;
13568;SDS011;6856;51.460;7.158;2023-09-19T13:28:37;5.60;;;1.20;;
13568;SDS011;6856;51.460;7.158;2023-09-19T13:31:15;3.47;;;1.23;;
13568;SDS011;6856;51.460;7.158;2023-09-19T13:33:51;2.67;;;1.20;;
13568;SDS011;6856;51.460;7.158;2023-09-19T13:36:25;3.58;;;1.67;;
13568;SDS011;6856;51.460;7.158;2023-09-19T13:39:00;2.17;;;1.08;;
13568;SDS011;6856;51.460;7.158;2023-09-19T13:41:34;2.97;;;0.98;;
13568;SDS011;6856;51.460;7.158;2023-09-19T13:44:08;3.97;;;1.25;;
13568;SDS011;6856;51.460;7.158;2023-09-19T13:46:43;2.63;;;0.88;;
13568;SDS011;6856;51.460;7.158;2023-09-19T13:49:20;3.03;;;1.10;;
13568;SDS011;6856;51.460;7.158;2023-09-19T13:51:54;2.97;;;0.98;;
13568;SDS011;6856;51.460;7.158;2023-09-19T13:54:30;4.13;;;1.50;;
13568;SDS011;6856;51.460;7.158;2023-09-19T13:57:04;3.80;;;1.60;;
13568;SDS011;6856;51.460;7.158;2023-09-19T13:59:41;1.85;;;1.10;;
13568;SDS011;6856;51.460;7.158;2023-09-19T14:02:15;1.30;;;0.95;;
13568;SDS011;6856;51.460;7.158;2023-09-19T14:04:52;2.03;;;1.00;;
13568;SDS011;6856;51.460;7.158;2023-09-19T14:07:26;1.80;;;0.90;;
13568;SDS011;6856;51.460;7.158;2023-09-19T14:10:00;3.20;;;1.02;;
13568;SDS011;6856;51.460;7.158;2023-09-19T14:12:38;1.48;;;1.10;;
13568;SDS011;6856;51.460;7.158;2023-09-19T14:15:15;3.28;;;0.98;;
13568;SDS011;6856;51.460;7.158;2023-09-19T14:17:49;3.22;;;1.25;;
13568;SDS011;6856;51.460;7.158;2023-09-19T14:20:25;1.08;;;0.63;;
13568;SDS011;6856;51.460;7.158;2023-09-19T14:22:59;3.53;;;1.20;;
13568;SDS011;6856;51.460;7.158;2023-09-19T14:25:34;2.42;;;0.98;;
13568;SDS011;6856;51.460;7.158;2023-09-19T14:28:10;5.38;;;1.20;;
13568;SDS011;6856;51.460;7.158;2023-09-19T14:30:44;1.58;;;0.75;;
13568;SDS011;6856;51.460;7.158;2023-09-19T14:33:21;1.90;;;0.80;;
13568;SDS011;6856;51.460;7.158;2023-09-19T14:35:58;1.58;;;0.80;;
13568;SDS011;6856;51.460;7.158;2023-09-19T14:38:40;2.45;;;0.80;;
13568;SDS011;6856;51.460;7.158;2023-09-19T14:41:14;4.05;;;1.08;;
13568;SDS011;6856;51.460;7.158;2023-09-19T14:43:49;3.47;;;1.20;;
13568;SDS011;6856;51.460;7.158;2023-09-19T14:46:28;0.90;;;0.73;;
13568;SDS011;6856;51.460;7.158;2023-09-19T14:49:09;3.72;;;1.23;;
13568;SDS011;6856;51.460;7.158;2023-09-19T14:51:45;2.13;;;1.00;;
13568;SDS011;6856;51.460;7.158;2023-09-19T14:54:19;2.58;;;0.90;;
13568;SDS011;6856;51.460;7.158;2023-09-19T14:56:55;2.08;;;0.95;;
13568;SDS011;6856;51.460;7.158;2023-09-19T14:59:37;2.25;;;0.70;;
13568;SDS011;6856;51.460;7.158;2023-09-19T15:02:11;2.70;;;0.97;;
13568;SDS011;6856;51.460;7.158;2023-09-19T15:04:48;2.63;;;1.20;;
13568;SDS011;6856;51.460;7.158;2023-09-19T15:07:24;2.43;;;0.77;;
13568;SDS011;6856;51.460;7.158;2023-09-19T15:10:01;2.38;;;1.00;;
13568;SDS011;6856;51.460;7.158;2023-09-19T15:12:38;3.13;;;1.00;;
13568;SDS011;6856;51.460;7.158;2023-09-19T15:15:12;2.13;;;1.13;;
13568;SDS011;6856;51.460;7.158;2023-09-19T15:17:49;2.10;;;0.90;;
13568;SDS011;6856;51.460;7.158;2023-09-19T15:20:23;1.33;;;0.75;;
13568;SDS011;6856;51.460;7.158;2023-09-19T15:23:00;1.00;;;0.57;;
13568;SDS011;6856;51.460;7.158;2023-09-19T15:25:34;1.80;;;0.77;;
13568;SDS011;6856;51.460;7.158;2023-09-19T15:28:09;2.43;;;0.90;;
13568;SDS011;6856;51.460;7.158;2023-09-19T15:30:43;0.60;;;0.60;;
13568;SDS011;6856;51.460;7.158;2023-09-19T15:33:18;3.13;;;0.90;;
13568;SDS011;6856;51.460;7.158;2023-09-19T15:35:52;1.80;;;1.00;;
13568;SDS011;6856;51.460;7.158;2023-09-19T15:41:33;2.15;;;0.85;;
13568;SDS011;6856;51.460;7.158;2023-09-19T15:44:13;1.30;;;0.70;;
13568;SDS011;6856;51.460;7.158;2023-09-19T15:46:49;1.70;;;0.70;;
13568;SDS011;6856;51.460;7.158;2023-09-19T15:49:24;1.77;;;0.70;;
13568;SDS011;6856;51.460;7.158;2023-09-19T15:51:59;2.00;;;0.67;;
13568;SDS011;6856;51.460;7.158;2023-09-19T15:54:34;1.53;;;0.70;;
13568;SDS011;6856;51.460;7.158;2023-09-19T15:57:13;1.70;;;0.63;;
13568;SDS011;6856;51.460;7.158;2023-09-19T15:59:48;1.20;;;0.60;;
13568;SDS011;6856;51.460;7.158;2023-09-19T16:02:22;1.17;;;0.53;;
13568;SDS011;6856;51.460;7.158;2023-09-19T16:04:58;0.75;;;0.50;;
13568;SDS011;6856;51.460;7.158;2023-09-19T16:07:32;0.87;;;0.63;;
13568;SDS011;6856;51.460;7.158;2023-09-19T16:10:10;0.98;;;0.63;;
13568;SDS011;6856;51.460;7.158;2023-09-19T16:12:45;1.95;;;0.70;;
13568;SDS011;6856;51.460;7.158;2023-09-19T16:15:19;2.73;;;0.83;;
13568;SDS011;6856;51.460;7.158;2023-09-19T16:17:58;1.60;;;0.60;;
13568;SDS011;6856;51.460;7.158;2023-09-19T16:20:37;1.10;;;0.60;;
13568;SDS011;6856;51.460;7.158;2023-09-19T16:23:11;1.23;;;0.47;;
13568;SDS011;6856;51.460;7.158;2023-09-19T16:25:47;1.45;;;0.70;;
13568;SDS011;6856;51.460;7.158;2023-09-19T16:28:36;1.63;;;0.80;;
13568;SDS011;6856;51.460;7.158;2023-09-19T16:31:11;1.07;;;0.87;;
13568;SDS011;6856;51.460;7.158;2023-09-19T16:33:47;2.20;;;0.70;;
13568;SDS011;6856;51.460;7.158;2023-09-19T16:36:23;1.60;;;0.70;;
13568;SDS011;6856;51.460;7.158;2023-09-19T16:42:02;3.30;;;0.97;;
13568;SDS011;6856;51.460;7.158;2023-09-19T16:44:51;5.03;;;1.07;;
13568;SDS011;6856;51.460;7.158;2023-09-19T16:47:25;1.00;;;0.77;;
13568;SDS011;6856;51.460;7.158;2023-09-19T16:50:01;1.50;;;0.60;;
13568;SDS011;6856;51.460;7.158;2023-09-19T16:56:17;3.03;;;0.93;;
13568;SDS011;6856;51.460;7.158;2023-09-19T16:58:53;1.60;;;0.80;;
13568;SDS011;6856;51.460;7.158;2023-09-19T17:01:29;1.80;;;0.83;;
13568;SDS011;6856;51.460;7.158;2023-09-19T17:04:04;1.43;;;0.73;;
13568;SDS011;6856;51.460;7.158;2023-09-19T17:06:39;1.53;;;1.00;;
13568;SDS011;6856;51.460;7.158;2023-09-19T17:09:18;2.00;;;0.80;;
13568;SDS011;6856;51.460;7.158;2023-09-19T17:11:52;2.50;;;1.00;;
13568;SDS011;6856;51.460;7.158;2023-09-19T17:14:29;1.83;;;0.80;;
13568;SDS011;6856;51.460;7.158;2023-09-19T17:17:12;1.57;;;0.90;;
13568;SDS011;6856;51.460;7.158;2023-09-19T17:19:48;2.10;;;0.90;;
13568;SDS011;6856;51.460;7.158;2023-09-19T17:22:21;2.30;;;0.70;;